Time;durP1;ratioP1;P1;durP2;ratioP2;P2;SDS_P1;SDS_P2;PMS_P1;PMS_P2;Temp;Humidity;BMP_temperature;BMP_pressure;BME280_temperature;BME280_humidity;BME280_pressure;Samples;Min_cycle;Max_cycle;Signal;HPM_P1;HPM_P2
2024/01/08 00:00:28;;;;;;;2.45;2.25;;;;;;;9.14;100.00;-24072.44;5030235;28;20183;-67
2024/01/08 00:02:54;;;;;;;2.10;1.83;;;;;;;9.17;100.00;-24073.13;5030769;28;20175;-66
2024/01/08 00:05:19;;;;;;;1.90;1.73;;;;;;;9.13;100.00;-24072.16;5030672;28;20182;-68
2024/01/08 00:07:45;;;;;;;1.73;1.63;;;;;;;9.11;100.00;-24071.59;5030371;28;20258;-66
2024/01/08 00:10:10;;;;;;;2.75;2.55;;;;;;;8.90;100.00;-24065.66;5031899;28;20477;-67
2024/01/08 00:12:35;;;;;;;1.80;1.70;;;;;;;9.08;100.00;-24070.59;5034264;28;20167;-65
2024/01/08 00:15:01;;;;;;;1.70;1.60;;;;;;;9.25;100.00;-24075.41;5033721;28;20619;-68
2024/01/08 00:17:26;;;;;;;1.30;1.30;;;;;;;9.34;100.00;-24077.94;5033276;28;20195;-67
2024/01/08 00:19:52;;;;;;;2.00;1.90;;;;;;;9.45;100.00;-24080.91;5034183;28;20179;-66
2024/01/08 00:22:17;;;;;;;2.28;1.80;;;;;;;9.16;100.00;-24072.84;5034095;28;20639;-65
2024/01/08 00:24:43;;;;;;;1.73;1.63;;;;;;;9.38;100.00;-24079.06;5034082;28;20241;-65
2024/01/08 00:27:08;;;;;;;2.42;2.17;;;;;;;9.39;100.00;-24079.22;5034068;28;20306;-66
2024/01/08 00:29:33;;;;;;;2.30;2.13;;;;;;;9.30;100.00;-24076.81;5033915;28;20556;-67
2024/01/08 00:31:59;;;;;;;2.17;1.92;;;;;;;9.43;100.00;-24080.34;5033836;28;20257;-68
2024/01/08 00:34:27;;;;;;;1.65;1.55;;;;;;;9.27;100.00;-24075.97;5034131;28;20171;-66
2024/01/08 00:36:52;;;;;;;2.30;2.10;;;;;;;9.29;100.00;-24076.66;5033940;28;20175;-67
2024/01/08 00:39:18;;;;;;;1.70;1.60;;;;;;;9.50;100.00;-24082.31;5033807;28;20553;-66
2024/01/08 00:41:43;;;;;;;2.85;1.80;;;;;;;9.57;100.00;-24084.31;5033620;28;20287;-66
2024/01/08 00:44:09;;;;;;;1.50;1.40;;;;;;;9.62;100.00;-24085.84;5033384;28;20175;-64
2024/01/08 00:46:34;;;;;;;2.20;1.50;;;;;;;9.62;100.00;-24085.84;5033747;28;20174;-68
2024/01/08 00:49:00;;;;;;;2.28;1.80;;;;;;;9.39;100.00;-24079.34;5034154;28;20171;-67
2024/01/08 00:51:25;;;;;;;1.70;1.58;;;;;;;9.43;100.00;-24080.50;5035378;28;20262;-65
2024/01/08 00:53:52;;;;;;;2.33;2.13;;;;;;;9.23;100.00;-24074.97;5034850;28;20222;-66
2024/01/08 00:56:18;;;;;;;1.52;1.42;;;;;;;9.55;100.00;-24083.75;5033923;28;20179;-68
2024/01/08 00:58:44;;;;;;;2.17;1.98;;;;;;;9.34;100.00;-24077.81;5033134;28;20199;-66
2024/01/08 01:01:11;;;;;;;1.55;1.45;;;;;;;9.58;100.00;-24084.72;5033764;28;20259;-68
2024/01/08 01:03:36;;;;;;;1.65;1.55;;;;;;;9.62;100.00;-24085.72;5033946;28;20221;-67
2024/01/08 01:06:02;;;;;;;1.90;1.80;;;;;;;9.47;100.00;-24081.63;5033986;28;20741;-65
2024/01/08 01:08:27;;;;;;;1.70;1.60;;;;;;;9.30;100.00;-24076.81;5033650;28;20187;-68
2024/01/08 01:10:53;;;;;;;2.05;1.95;;;;;;;9.24;100.00;-24075.13;5033238;28;20557;-68
2024/01/08 01:13:18;;;;;;;1.73;1.63;;;;;;;9.59;100.00;-24085.00;5033249;28;20233;-68
2024/01/08 01:15:44;;;;;;;3.88;1.60;;;;;;;9.67;100.00;-24087.13;5033686;28;20171;-68
2024/01/08 01:18:09;;;;;;;1.42;1.33;;;;;;;9.37;100.00;-24078.78;5032810;28;20202;-66
2024/01/08 01:20:35;;;;;;;2.17;2.08;;;;;;;9.31;100.00;-24077.25;5032819;28;20168;-64
2024/01/08 01:23:00;;;;;;;4.95;1.60;;;;;;;9.54;100.00;-24083.59;5031513;28;20207;-66
2024/01/08 01:25:26;;;;;;;1.60;1.50;;;;;;;9.37;100.00;-24078.66;5033059;28;20191;-67
2024/01/08 01:27:51;;;;;;;1.25;1.25;;;;;;;9.38;100.00;-24078.94;5033080;28;20193;-67
2024/01/08 01:30:17;;;;;;;1.65;1.55;;;;;;;9.45;100.00;-24080.91;5032764;28;20528;-67
2024/01/08 01:32:42;;;;;;;1.63;1.52;;;;;;;9.62;100.00;-24085.84;5032470;28;20251;-67
2024/01/08 01:35:08;;;;;;;1.50;1.40;;;;;;;9.56;100.00;-24084.16;5033346;28;20166;-66
2024/01/08 01:37:33;;;;;;;1.88;1.70;;;;;;;9.36;100.00;-24078.50;5032751;28;20191;-64
2024/01/08 01:39:58;;;;;;;1.40;1.30;;;;;;;9.56;100.00;-24084.16;5032403;28;20282;-66
2024/01/08 01:42:24;;;;;;;2.25;1.90;;;;;;;9.30;100.00;-24076.81;5032549;28;20176;-67
2024/01/08 01:44:49;;;;;;;1.98;1.83;;;;;;;9.52;100.00;-24082.91;5032152;28;20599;-67
2024/01/08 01:47:15;;;;;;;1.75;1.65;;;;;;;9.48;100.00;-24081.91;5032871;28;20273;-65
2024/01/08 01:49:41;;;;;;;1.80;1.70;;;;;;;9.51;100.00;-24082.75;5032594;28;20221;-68
2024/01/08 01:52:09;;;;;;;2.28;2.00;;;;;;;9.55;100.00;-24083.75;5032266;28;20557;-68
2024/01/08 01:54:35;;;;;;;1.70;1.60;;;;;;;9.31;100.00;-24077.09;5038703;28;20179;-65
2024/01/08 01:57:02;;;;;;;1.67;1.58;;;;;;;9.55;100.00;-24083.88;5032339;28;20200;-66
2024/01/08 01:59:29;;;;;;;1.70;1.60;;;;;;;9.60;100.00;-24085.28;5032361;28;20640;-67
2024/01/08 02:01:57;;;;;;;1.48;1.38;;;;;;;9.57;100.00;-24084.44;5032459;28;20155;-66
2024/01/08 02:04:25;;;;;;;1.95;1.75;;;;;;;9.59;100.00;-24085.00;5032716;28;20171;-67
2024/01/08 02:06:51;;;;;;;2.03;1.80;;;;;;;9.56;100.00;-24084.16;5030157;28;20175;-66
2024/01/08 02:09:17;;;;;;;1.70;1.60;;;;;;;9.41;100.00;-24079.78;5032033;28;20216;-65
2024/01/08 02:11:43;;;;;;;1.80;1.70;;;;;;;9.30;100.00;-24076.94;5031880;28;20180;-64
2024/01/08 02:14:10;;;;;;;1.90;1.65;;;;;;;9.27;100.00;-24075.97;5032160;28;20666;-66
2024/01/08 02:16:35;;;;;;;1.80;1.70;;;;;;;9.43;100.00;-24080.50;5031978;28;20175;-67
2024/01/08 02:19:01;;;;;;;2.45;1.92;;;;;;;9.37;100.00;-24078.78;5031782;28;20702;-65
2024/01/08 02:21:27;;;;;;;1.50;1.40;;;;;;;9.26;100.00;-24075.81;5032025;28;20172;-67
2024/01/08 02:23:53;;;;;;;8.43;3.40;;;;;;;9.49;100.00;-24082.19;5031810;28;20167;-66
2024/01/08 02:26:18;;;;;;;1.83;1.52;;;;;;;9.20;100.00;-24074.13;5031785;28;20612;-65
2024/01/08 02:28:44;;;;;;;1.95;1.75;;;;;;;9.39;100.00;-24079.22;5031415;28;20172;-67
2024/01/08 02:31:09;;;;;;;2.42;2.22;;;;;;;9.17;100.00;-24073.13;5030602;28;20203;-67
2024/01/08 02:33:35;;;;;;;1.30;1.30;;;;;;;9.27;100.00;-24076.09;5045831;28;20222;-66
2024/01/08 02:36:00;;;;;;;2.67;1.95;;;;;;;9.26;100.00;-24075.69;5031324;28;20246;-66
2024/01/08 02:38:26;;;;;;;2.47;2.03;;;;;;;9.12;100.00;-24071.72;5031125;28;20199;-67
2024/01/08 02:40:51;;;;;;;1.40;1.30;;;;;;;9.14;100.00;-24072.44;5031113;28;20635;-67
2024/01/08 02:43:16;;;;;;;1.40;1.30;;;;;;;9.40;100.00;-24079.63;5029704;28;20569;-65
2024/01/08 02:45:42;;;;;;;2.08;1.98;;;;;;;9.53;100.00;-24083.16;5031046;28;20175;-66
2024/01/08 02:48:08;;;;;;;1.77;1.67;;;;;;;9.22;100.00;-24074.56;5031384;28;20255;-65
2024/01/08 02:50:33;;;;;;;1.50;1.40;;;;;;;9.47;100.00;-24081.63;5030876;28;20171;-66
2024/01/08 02:52:59;;;;;;;1.52;1.42;;;;;;;9.41;100.00;-24079.78;5030736;28;20175;-65
2024/01/08 02:55:24;;;;;;;2.28;2.05;;;;;;;9.30;100.00;-24076.94;5030731;28;20167;-65
2024/01/08 02:57:49;;;;;;;1.80;1.70;;;;;;;9.44;100.00;-24080.78;5037113;28;20201;-68
2024/01/08 03:00:15;;;;;;;1.50;1.40;;;;;;;9.27;100.00;-24075.97;5031156;28;20246;-66
2024/01/08 03:02:41;;;;;;;1.58;1.48;;;;;;;9.24;100.00;-24075.13;5030908;28;20202;-66
2024/01/08 03:05:07;;;;;;;1.52;1.42;;;;;;;9.17;100.00;-24073.13;5029384;28;20255;-66
2024/01/08 03:07:32;;;;;;;3.38;1.65;;;;;;;9.36;100.00;-24078.38;5029319;28;20179;-66
2024/01/08 03:09:58;;;;;;;2.80;1.98;;;;;;;9.19;100.00;-24073.84;5029512;28;20201;-65
2024/01/08 03:12:26;;;;;;;2.40;1.85;;;;;;;9.35;100.00;-24078.22;5029681;28;20270;-67
2024/01/08 03:14:52;;;;;;;1.20;1.20;;;;;;;9.37;100.00;-24078.66;5029504;28;20168;-68
2024/01/08 03:17:18;;;;;;;1.50;1.40;;;;;;;9.17;100.00;-24073.13;5029604;28;20241;-65
2024/01/08 03:19:43;;;;;;;1.20;1.15;;;;;;;9.13;100.00;-24072.00;5030189;28;20171;-67
2024/01/08 03:22:09;;;;;;;1.70;1.60;;;;;;;9.41;100.00;-24079.91;5031050;28;20662;-64
2024/01/08 03:24:37;;;;;;;1.65;1.55;;;;;;;9.23;100.00;-24074.84;5030516;28;20258;-66
2024/01/08 03:27:03;;;;;;;1.48;1.38;;;;;;;9.47;100.00;-24081.47;5029706;28;20550;-65
2024/01/08 03:29:29;;;;;;;1.52;1.42;;;;;;;9.43;100.00;-24080.50;5031026;28;20175;-66
2024/01/08 03:31:54;;;;;;;1.08;1.08;;;;;;;9.43;100.00;-24080.34;5031274;28;20176;-65
2024/01/08 03:34:20;;;;;;;1.10;1.10;;;;;;;9.42;100.00;-24080.22;5031272;28;20171;-66
2024/01/08 03:36:46;;;;;;;2.13;1.65;;;;;;;9.18;100.00;-24073.41;5030404;28;20176;-66
2024/01/08 03:39:13;;;;;;;1.58;1.48;;;;;;;9.39;100.00;-24079.34;5030395;28;20179;-65
2024/01/08 03:41:39;;;;;;;1.40;1.30;;;;;;;9.08;100.00;-24070.59;5030818;28;20206;-66
2024/01/08 03:44:06;;;;;;;1.35;1.25;;;;;;;9.49;100.00;-24082.03;5030937;28;20159;-67
2024/01/08 03:46:31;;;;;;;1.23;1.23;;;;;;;9.37;100.00;-24078.78;5034791;28;20182;-66
2024/01/08 03:48:57;;;;;;;1.50;1.40;;;;;;;9.47;100.00;-24081.63;5034857;28;20175;-67
2024/01/08 03:51:22;;;;;;;1.40;1.30;;;;;;;9.51;100.00;-24082.75;5034957;28;20301;-66
2024/01/08 03:53:48;;;;;;;1.10;1.10;;;;;;;9.47;100.00;-24081.63;5034386;28;20206;-67
2024/01/08 03:56:13;;;;;;;1.90;1.80;;;;;;;9.38;100.00;-24078.94;5035401;28;20262;-69
2024/01/08 03:58:38;;;;;;;1.75;1.65;;;;;;;9.40;100.00;-24079.63;5039684;28;20203;-65
2024/01/08 04:01:04;;;;;;;1.58;1.48;;;;;;;9.38;100.00;-24078.94;5036846;28;20313;-66
2024/01/08 04:03:29;;;;;;;1.70;1.60;;;;;;;9.05;100.00;-24069.88;5034519;28;20171;-67
2024/01/08 04:05:55;;;;;;;1.35;1.27;;;;;;;9.37;100.00;-24078.66;5034921;28;20180;-64
2024/01/08 04:08:20;;;;;;;1.73;1.40;;;;;;;9.33;100.00;-24077.66;5034143;28;20679;-66
2024/01/08 04:10:46;;;;;;;1.42;1.33;;;;;;;9.18;100.00;-24073.41;5034449;28;20156;-65
2024/01/08 04:13:11;;;;;;;1.10;1.10;;;;;;;9.08;100.00;-24070.59;5033038;28;20262;-67
2024/01/08 04:15:37;;;;;;;1.30;1.20;;;;;;;9.10;100.00;-24071.16;5034215;28;20175;-67
2024/01/08 04:18:02;;;;;;;1.20;1.20;;;;;;;9.00;100.00;-24068.47;5034200;28;20688;-66
2024/01/08 04:20:28;;;;;;;1.00;1.00;;;;;;;9.20;100.00;-24074.13;5034269;28;20168;-67
2024/01/08 04:22:53;;;;;;;1.10;1.10;;;;;;;9.34;100.00;-24077.81;5034013;28;20516;-65
2024/01/08 04:25:19;;;;;;;1.00;1.00;;;;;;;9.42;100.00;-24080.22;5034016;28;20553;-67
2024/01/08 04:27:44;;;;;;;1.00;1.00;;;;;;;9.24;100.00;-24075.25;5034005;28;20251;-67
2024/01/08 04:30:10;;;;;;;1.08;1.08;;;;;;;9.27;100.00;-24076.09;5032252;28;20183;-65
2024/01/08 04:32:36;;;;;;;1.00;1.00;;;;;;;9.26;100.00;-24075.69;5033914;28;20315;-67
2024/01/08 04:35:02;;;;;;;1.02;1.02;;;;;;;9.28;100.00;-24076.38;5033634;28;20175;-67
2024/01/08 04:37:28;;;;;;;1.35;1.25;;;;;;;9.11;100.00;-24071.44;5033630;28;20199;-67
2024/01/08 04:39:53;;;;;;;0.93;0.93;;;;;;;9.26;100.00;-24075.69;5034186;28;20185;-68
2024/01/08 04:42:19;;;;;;;0.90;0.90;;;;;;;8.85;100.00;-24064.38;5033635;28;20207;-68
2024/01/08 04:44:45;;;;;;;1.00;1.00;;;;;;;9.00;100.00;-24068.34;5032077;28;20176;-68
2024/01/08 04:47:11;;;;;;;2.05;1.67;;;;;;;8.81;100.00;-24063.09;5033698;28;20241;-67
2024/01/08 04:49:36;;;;;;;1.08;1.08;;;;;;;9.05;100.00;-24069.88;5033444;28;20175;-63
2024/01/08 04:52:02;;;;;;;1.10;1.10;;;;;;;9.04;100.00;-24069.47;5033237;28;20176;-66
2024/01/08 04:54:28;;;;;;;0.90;0.90;;;;;;;9.04;100.00;-24069.47;5033583;28;20198;-67
2024/01/08 04:56:55;;;;;;;1.05;1.05;;;;;;;9.04;100.00;-24069.59;5032660;28;20179;-67
2024/01/08 04:59:22;;;;;;;1.40;1.30;;;;;;;9.05;100.00;-24069.75;5033155;28;20190;-65
2024/01/08 05:01:48;;;;;;;0.93;0.93;;;;;;;8.80;100.00;-24062.81;5041000;28;20669;-66
2024/01/08 05:04:14;;;;;;;1.10;1.10;;;;;;;9.18;100.00;-24073.41;5033253;28;20182;-65
2024/01/08 05:06:39;;;;;;;1.10;1.10;;;;;;;9.08;100.00;-24070.59;5032955;28;20163;-67
2024/01/08 05:09:05;;;;;;;1.00;1.00;;;;;;;9.12;100.00;-24071.72;5033109;28;20183;-64
2024/01/08 05:11:30;;;;;;;0.90;0.90;;;;;;;8.99;100.00;-24068.03;5033044;28;20511;-67
2024/01/08 05:13:56;;;;;;;1.48;1.38;;;;;;;9.18;100.00;-24073.41;5032932;28;20205;-67
2024/01/08 05:16:21;;;;;;;1.00;1.00;;;;;;;9.21;100.00;-24074.25;5033120;28;20203;-69
2024/01/08 05:18:46;;;;;;;1.00;1.00;;;;;;;9.14;100.00;-24072.44;5032782;28;20199;-66
2024/01/08 05:21:15;;;;;;;1.00;1.00;;;;;;;8.90;100.00;-24065.66;5032643;28;20251;-65
2024/01/08 05:23:41;;;;;;;1.00;1.00;;;;;;;9.11;100.00;-24071.59;5033086;28;20180;-68
2024/01/08 05:26:07;;;;;;;0.90;0.90;;;;;;;9.08;100.00;-24070.59;5032342;28;20217;-68
2024/01/08 05:28:32;;;;;;;1.00;1.00;;;;;;;9.18;100.00;-24073.41;5032533;28;20179;-66
2024/01/08 05:30:58;;;;;;;1.00;1.00;;;;;;;9.01;100.00;-24068.63;5032504;28;20174;-67
2024/01/08 05:33:25;;;;;;;1.00;1.00;;;;;;;9.16;100.00;-24073.00;5032735;28;20227;-69
2024/01/08 05:35:50;;;;;;;1.00;1.00;;;;;;;9.10;100.00;-24071.16;5032191;28;20612;-67
2024/01/08 05:38:16;;;;;;;1.10;1.10;;;;;;;8.88;100.00;-24064.94;5032452;28;20690;-65
2024/01/08 05:40:41;;;;;;;1.70;1.60;;;;;;;8.85;100.00;-24064.38;5032539;28;20230;-69
2024/01/08 05:43:06;;;;;;;1.00;1.00;;;;;;;8.79;100.00;-24062.53;5032647;28;20179;-66
2024/01/08 05:45:32;;;;;;;1.00;1.00;;;;;;;9.00;100.00;-24068.34;5032387;28;20599;-65
2024/01/08 05:47:57;;;;;;;0.90;0.90;;;;;;;8.92;100.00;-24066.22;5031862;28;20167;-66
2024/01/08 05:50:27;;;;;;;1.20;1.10;;;;;;;8.85;100.00;-24064.38;5031929;28;20194;-68
2024/01/08 05:52:54;;;;;;;1.10;1.10;;;;;;;8.72;100.00;-24060.69;5032205;28;20654;-67
2024/01/08 05:55:20;;;;;;;1.00;1.00;;;;;;;8.67;100.00;-24059.13;5032159;28;20171;-66
2024/01/08 05:57:45;;;;;;;1.00;1.00;;;;;;;8.82;100.00;-24063.53;5031795;28;20349;-66
2024/01/08 06:00:12;;;;;;;1.00;1.00;;;;;;;8.62;100.00;-24057.72;5031949;28;20257;-66
2024/01/08 06:02:37;;;;;;;1.10;1.10;;;;;;;8.62;100.00;-24057.88;5030957;28;20175;-67
2024/01/08 06:05:03;;;;;;;1.00;1.00;;;;;;;8.76;100.00;-24061.81;5038174;28;20621;-67
2024/01/08 06:07:28;;;;;;;1.20;1.20;;;;;;;8.79;100.00;-24062.53;5030550;28;20171;-66
2024/01/08 06:09:54;;;;;;;0.90;0.90;;;;;;;8.59;100.00;-24057.00;5031366;28;20631;-66
2024/01/08 06:12:19;;;;;;;1.23;1.20;;;;;;;8.36;100.00;-24050.66;5031152;28;20373;-70
2024/01/08 06:14:44;;;;;;;1.30;1.20;;;;;;;8.70;100.00;-24060.13;5054386;28;20628;-66
2024/01/08 06:17:10;;;;;;;1.20;1.20;;;;;;;8.54;100.00;-24055.59;5020255;28;20227;-66
2024/01/08 06:19:36;;;;;;;1.15;1.15;;;;;;;8.37;100.00;-24050.78;5030947;28;20539;-66
2024/01/08 06:22:01;;;;;;;0.90;0.90;;;;;;;8.60;100.00;-24057.28;5031291;28;20199;-67
2024/01/08 06:24:27;;;;;;;0.90;0.90;;;;;;;8.66;100.00;-24058.84;5031720;28;20168;-66
2024/01/08 06:26:52;;;;;;;0.97;0.97;;;;;;;8.38;100.00;-24051.06;5031276;28;20608;-65
2024/01/08 06:29:18;;;;;;;1.13;1.13;;;;;;;8.45;100.00;-24053.06;5031353;28;20229;-67
2024/01/08 06:31:45;;;;;;;1.07;1.07;;;;;;;8.59;100.00;-24057.00;5030900;28;20174;-66
2024/01/08 06:34:10;;;;;;;1.00;1.00;;;;;;;8.54;100.00;-24055.59;5029804;28;20614;-66
2024/01/08 06:36:36;;;;;;;0.97;0.97;;;;;;;8.38;100.00;-24051.22;5031137;28;20195;-67
2024/01/08 06:39:01;;;;;;;1.00;1.00;;;;;;;8.72;100.00;-24060.56;5031199;28;20199;-67
2024/01/08 06:41:26;;;;;;;1.20;1.20;;;;;;;8.48;100.00;-24053.91;5030924;28;20163;-65
2024/01/08 06:43:52;;;;;;;1.13;1.13;;;;;;;8.69;100.00;-24059.84;5030725;28;20171;-67
2024/01/08 06:46:18;;;;;;;1.50;1.40;;;;;;;8.48;100.00;-24053.75;5031240;28;20206;-66
2024/01/08 06:48:43;;;;;;;1.20;1.20;;;;;;;8.65;100.00;-24058.72;5030483;28;20285;-66
2024/01/08 06:51:11;;;;;;;1.00;1.00;;;;;;;8.59;100.00;-24057.00;5029373;28;20640;-68
2024/01/08 06:53:37;;;;;;;0.93;0.93;;;;;;;8.56;100.00;-24056.03;5030721;28;20175;-63
2024/01/08 06:56:02;;;;;;;0.93;0.93;;;;;;;8.31;100.00;-24049.09;5030590;28;20198;-65
2024/01/08 06:58:27;;;;;;;1.00;1.00;;;;;;;8.49;100.00;-24054.03;5030916;28;20214;-67
2024/01/08 07:00:53;;;;;;;1.60;1.50;;;;;;;8.57;100.00;-24056.44;5030663;28;20182;-68
2024/01/08 07:03:18;;;;;;;1.40;1.30;;;;;;;8.60;100.00;-24057.16;5030188;28;20175;-66
2024/01/08 07:05:44;;;;;;;0.90;0.90;;;;;;;8.41;100.00;-24052.06;5038036;28;20201;-68
2024/01/08 07:08:09;;;;;;;1.08;1.08;;;;;;;8.33;100.00;-24049.66;5030929;28;20222;-70
2024/01/08 07:10:35;;;;;;;1.20;1.20;;;;;;;8.62;100.00;-24057.72;5031092;28;20175;-65
2024/01/08 07:13:01;;;;;;;1.47;1.37;;;;;;;8.57;100.00;-24056.44;5030837;28;20225;-67
2024/01/08 07:15:45;;;;;;;1.02;1.02;;;;;;;8.34;100.00;-24050.06;5030628;28;20175;-69
2024/01/08 07:18:11;;;;;;;1.20;1.20;;;;;;;8.53;100.00;-24055.31;5030180;28;20234;-67
2024/01/08 07:20:38;;;;;;;1.10;1.10;;;;;;;8.62;100.00;-24057.72;5030713;28;20169;-66
2024/01/08 07:23:05;;;;;;;1.13;1.13;;;;;;;8.45;100.00;-24052.91;5030589;28;20199;-67
2024/01/08 07:25:31;;;;;;;1.83;1.30;;;;;;;8.52;100.00;-24055.03;5030500;28;20289;-69
2024/01/08 07:27:57;;;;;;;1.58;1.48;;;;;;;8.28;100.00;-24048.38;5030246;28;20183;-70
2024/01/08 07:30:22;;;;;;;1.50;1.40;;;;;;;8.43;100.00;-24052.63;5030218;28;20160;-66
2024/01/08 07:32:49;;;;;;;1.13;1.13;;;;;;;8.29;100.00;-24048.50;5030454;28;20289;-66
2024/01/08 07:35:14;;;;;;;1.20;1.20;;;;;;;8.45;100.00;-24053.06;5030192;28;20171;-65
2024/01/08 07:37:40;;;;;;;1.10;1.10;;;;;;;8.52;100.00;-24054.88;5030275;28;20211;-67
2024/01/08 07:40:06;;;;;;;1.52;1.42;;;;;;;8.28;100.00;-24048.38;5030486;28;20172;-70
2024/01/08 07:42:31;;;;;;;1.65;1.55;;;;;;;8.56;100.00;-24056.03;5030308;28;20364;-65
2024/01/08 07:44:58;;;;;;;1.73;1.37;;;;;;;8.58;100.00;-24056.72;5029974;28;20279;-68
2024/01/08 07:47:23;;;;;;;0.95;0.95;;;;;;;8.46;100.00;-24053.19;5030044;28;20629;-67
2024/01/08 07:49:48;;;;;;;1.03;1.03;;;;;;;8.60;100.00;-24057.28;5030226;28;20207;-67
2024/01/08 07:52:14;;;;;;;1.00;1.00;;;;;;;8.58;100.00;-24056.72;5029757;28;20187;-67
2024/01/08 07:54:39;;;;;;;1.10;1.10;;;;;;;8.50;100.00;-24054.31;5030269;28;20206;-68
2024/01/08 07:57:04;;;;;;;1.40;1.30;;;;;;;8.42;100.00;-24052.19;5030662;28;20646;-68
2024/01/08 07:59:30;;;;;;;1.48;1.38;;;;;;;8.77;100.00;-24062.09;5030163;28;20194;-65
2024/01/08 08:01:56;;;;;;;1.15;1.15;;;;;;;8.75;100.00;-24061.53;5030181;28;20168;-68
2024/01/08 08:04:21;;;;;;;1.02;1.02;;;;;;;8.53;100.00;-24055.31;5029842;28;20183;-66
2024/01/08 08:06:47;;;;;;;1.10;1.10;;;;;;;8.66;100.00;-24058.84;5032150;28;20175;-65
2024/01/08 08:09:12;;;;;;;1.10;1.10;;;;;;;8.33;100.00;-24049.66;5034974;28;20669;-70
2024/01/08 08:11:41;;;;;;;1.02;1.02;;;;;;;8.55;100.00;-24055.75;5030076;28;20254;-66
2024/01/08 08:14:07;;;;;;;1.40;1.30;;;;;;;8.63;100.00;-24058.00;5030072;28;20156;-65
2024/01/08 08:16:32;;;;;;;1.10;1.10;;;;;;;8.62;100.00;-24057.88;5029969;28;20553;-69
2024/01/08 08:18:58;;;;;;;1.00;1.00;;;;;;;8.45;100.00;-24052.91;5029993;28;20237;-66
2024/01/08 08:21:23;;;;;;;1.00;1.00;;;;;;;8.52;100.00;-24055.03;5063291;28;20292;-68
2024/01/08 08:23:50;;;;;;;1.02;1.02;;;;;;;8.52;100.00;-24055.03;5030897;28;20168;-68
2024/01/08 08:26:15;;;;;;;1.07;1.07;;;;;;;8.45;100.00;-24052.91;5029982;28;20163;-66
2024/01/08 08:28:41;;;;;;;1.10;1.10;;;;;;;8.43;100.00;-24052.47;5029785;28;20168;-69
2024/01/08 08:31:07;;;;;;;1.00;1.00;;;;;;;8.54;100.00;-24055.59;5030967;28;20172;-66
2024/01/08 08:33:32;;;;;;;1.00;1.00;;;;;;;8.46;100.00;-24053.34;5031973;28;20281;-67
2024/01/08 08:35:57;;;;;;;1.10;1.10;;;;;;;8.66;100.00;-24058.84;5033701;28;20179;-65
2024/01/08 08:38:23;;;;;;;1.20;1.20;;;;;;;8.69;100.00;-24059.69;5033414;28;20695;-69
2024/01/08 08:40:48;;;;;;;1.00;1.00;;;;;;;8.67;100.00;-24059.28;5033048;28;20247;-66
2024/01/08 08:43:13;;;;;;;2.22;1.23;;;;;;;8.56;100.00;-24056.16;5033242;28;20562;-66
2024/01/08 08:45:39;;;;;;;1.00;1.00;;;;;;;8.65;100.00;-24058.56;5033547;28;20171;-68
2024/01/08 08:48:05;;;;;;;1.00;1.00;;;;;;;8.35;100.00;-24050.38;5033256;28;20190;-66
2024/01/08 08:50:30;;;;;;;1.10;1.10;;;;;;;8.65;100.00;-24058.72;5048477;28;20245;-68
2024/01/08 08:52:55;;;;;;;1.38;1.30;;;;;;;8.45;100.00;-24053.06;5033245;28;20171;-68
2024/01/08 08:55:21;;;;;;;1.40;1.30;;;;;;;8.58;100.00;-24056.59;5032263;28;20167;-68
2024/01/08 08:57:47;;;;;;;1.30;1.20;;;;;;;8.48;100.00;-24053.75;5033059;28;20194;-68
2024/01/08 09:00:12;;;;;;;1.10;1.10;;;;;;;8.53;100.00;-24055.16;5032749;28;20183;-67
2024/01/08 09:02:37;;;;;;;1.10;1.10;;;;;;;8.68;100.00;-24059.56;5033309;28;20228;-67
2024/01/08 09:05:07;;;;;;;1.10;1.10;;;;;;;8.55;100.00;-24055.75;5033311;28;20178;-68
2024/01/08 09:07:33;;;;;;;1.00;1.00;;;;;;;8.62;100.00;-24057.88;5033208;28;20175;-67
2024/01/08 09:09:58;;;;;;;1.15;1.15;;;;;;;8.80;100.00;-24062.94;5041149;28;20524;-66
2024/01/08 09:12:24;;;;;;;1.00;1.00;;;;;;;8.67;100.00;-24059.28;5048654;28;20211;-65
2024/01/08 09:14:49;;;;;;;1.10;1.10;;;;;;;8.67;100.00;-24059.28;5065065;28;20572;-67
2024/01/08 09:17:14;;;;;;;1.17;1.17;;;;;;;8.66;100.00;-24058.84;5033339;28;20180;-68
2024/01/08 09:19:40;;;;;;;1.00;1.00;;;;;;;8.72;100.00;-24060.56;5033160;28;20202;-66
2024/01/08 09:22:05;;;;;;;1.10;1.10;;;;;;;8.71;100.00;-24060.25;5033270;28;20171;-68
2024/01/08 09:24:31;;;;;;;1.20;1.20;;;;;;;8.85;100.00;-24064.38;5033324;28;20180;-67
2024/01/08 09:26:56;;;;;;;1.00;1.00;;;;;;;8.80;100.00;-24062.81;5032972;28;20254;-68
2024/01/08 09:29:21;;;;;;;1.27;1.20;;;;;;;9.01;100.00;-24068.63;5048112;28;20179;-69
2024/01/08 09:31:47;;;;;;;1.35;1.25;;;;;;;9.09;100.00;-24070.88;5032886;28;20254;-70
2024/01/08 09:34:13;;;;;;;1.08;1.08;;;;;;;9.03;100.00;-24069.19;5033141;28;20176;-68
2024/01/08 09:36:38;;;;;;;1.40;1.30;;;;;;;9.22;100.00;-24074.56;5032963;28;20179;-66
2024/01/08 09:39:04;;;;;;;1.20;1.20;;;;;;;9.22;100.00;-24074.56;5032817;28;20203;-68
2024/01/08 09:41:29;;;;;;;1.30;1.20;;;;;;;9.30;100.00;-24076.94;5032395;28;20178;-67
2024/01/08 09:44:02;;;;;;;1.10;1.10;;;;;;;9.08;100.00;-24070.59;5031934;28;20610;-68
2024/01/08 09:46:32;;;;;;;1.17;1.17;;;;;;;9.10;100.00;-24071.16;5032977;28;20217;-67
2024/01/08 09:49:00;;;;;;;1.00;1.00;;;;;;;9.34;100.00;-24077.81;5032483;28;20536;-67
2024/01/08 09:51:25;;;;;;;1.00;1.00;;;;;;;9.67;100.00;-24087.13;5032731;28;20585;-67
2024/01/08 09:53:52;;;;;;;1.60;1.50;;;;;;;9.68;100.00;-24087.56;5032172;28;20182;-68
2024/01/08 09:56:22;;;;;;;1.05;1.05;;;;;;;9.70;100.00;-24088.13;5032140;28;20171;-66
2024/01/08 09:58:48;;;;;;;1.10;1.10;;;;;;;9.93;100.00;-24094.47;5032220;28;20239;-67
2024/01/08 10:01:13;;;;;;;1.00;1.00;;;;;;;9.67;100.00;-24087.28;5031368;28;20218;-67
2024/01/08 10:03:39;;;;;;;1.00;1.00;;;;;;;9.67;100.00;-24087.28;5032607;28;20694;-68
2024/01/08 10:06:08;;;;;;;1.38;1.27;;;;;;;9.94;100.00;-24094.63;5032342;28;20207;-67
2024/01/08 10:08:33;;;;;;;0.88;0.88;;;;;;;10.05;100.00;-24097.88;5036091;28;20235;-65
2024/01/08 10:10:59;;;;;;;1.10;1.10;;;;;;;10.07;100.00;-24098.44;5035487;28;20207;-69
2024/01/08 10:13:24;;;;;;;1.00;1.00;;;;;;;9.76;100.00;-24089.81;5032254;28;20218;-65
2024/01/08 10:15:52;;;;;;;1.48;1.38;;;;;;;10.02;100.00;-24096.88;5032152;28;20176;-67
2024/01/08 10:18:17;;;;;;;0.90;0.90;;;;;;;10.14;100.00;-24100.41;5032014;28;20704;-66
2024/01/08 10:20:46;;;;;;;1.27;1.17;;;;;;;10.23;100.00;-24102.66;5030465;28;20175;-66
2024/01/08 10:23:16;;;;;;;1.15;1.15;;;;;;;10.14;100.00;-24100.41;5031716;28;20563;-64
2024/01/08 10:25:48;;;;;;;1.10;1.10;;;;;;;10.28;100.00;-24104.22;5031689;28;20176;-65
2024/01/08 10:28:16;;;;;;;1.38;1.20;;;;;;;10.18;100.00;-24101.53;5032019;28;20171;-67
2024/01/08 10:30:42;;;;;;;1.00;1.00;;;;;;;10.05;100.00;-24097.72;5031672;28;20569;-69
2024/01/08 10:33:08;;;;;;;0.90;0.90;;;;;;;10.11;100.00;-24099.56;5031322;28;20602;-69
2024/01/08 10:35:35;;;;;;;1.10;1.10;;;;;;;9.91;100.00;-24093.91;5031415;28;20175;-68
2024/01/08 10:38:01;;;;;;;1.00;1.00;;;;;;;10.17;100.00;-24101.25;5031166;28;20222;-68
2024/01/08 10:40:28;;;;;;;1.10;1.10;;;;;;;9.93;100.00;-24094.47;5030707;28;20206;-69
2024/01/08 10:42:54;;;;;;;1.08;1.08;;;;;;;10.02;100.00;-24096.88;5031214;28;20175;-64
2024/01/08 10:45:20;;;;;;;1.20;1.10;;;;;;;9.76;100.00;-24089.81;5031302;28;20176;-66
2024/01/08 10:47:55;;;;;;;1.00;1.00;;;;;;;9.68;100.00;-24087.56;5031058;28;20174;-67
2024/01/08 10:50:24;;;;;;;1.00;1.00;;;;;;;9.55;100.00;-24083.88;5031224;28;20248;-72
2024/01/08 10:52:53;;;;;;;1.38;1.27;;;;;;;9.79;100.00;-24090.38;5030779;28;20248;-69
2024/01/08 10:55:21;;;;;;;1.13;1.13;;;;;;;9.92;100.00;-24094.06;5030874;28;20176;-68
2024/01/08 10:57:49;;;;;;;0.93;0.93;;;;;;;10.02;100.00;-24096.88;5031078;28;20195;-67
2024/01/08 11:00:15;;;;;;;1.23;1.17;;;;;;;9.93;100.00;-24094.47;5031000;28;20171;-65
2024/01/08 11:02:42;;;;;;;0.90;0.90;;;;;;;9.77;100.00;-24090.09;5031104;28;20179;-69
2024/01/08 11:05:08;;;;;;;0.80;0.80;;;;;;;10.09;100.00;-24099.00;5030959;28;20180;-66
2024/01/08 11:07:41;;;;;;;1.25;1.17;;;;;;;9.94;100.00;-24094.63;5031180;28;20167;-67
2024/01/08 11:10:09;;;;;;;1.00;1.00;;;;;;;9.74;100.00;-24089.25;5032431;28;20214;-66
2024/01/08 11:12:41;;;;;;;0.93;0.93;;;;;;;9.95;100.00;-24094.91;5033595;28;20172;-66
2024/01/08 11:15:07;;;;;;;1.00;1.00;;;;;;;9.92;100.00;-24094.19;5030594;28;20261;-68
2024/01/08 11:17:34;;;;;;;1.35;1.30;;;;;;;9.97;100.00;-24095.59;5030458;28;20199;-67